Date,TemperatureHighF,TemperatureAvgF,TemperatureLowF,DewpointHighF,DewpointAvgF,DewpointLowF,HumidityHigh,HumidityAvg,HumidityLow,PressureMaxIn,PressureMinIn,WindSpeedMaxMPH,WindSpeedAvgMPH,GustSpeedMaxMPH,PrecipitationSumIn
2013-1-1,30,23,6,25,13,0,90,67,48,29.85,29.60,11,2,15,0.00
2013-1-2,24,10,-4,11,1,-9,84,66,45,30.03,29.82,12,1,23,0.00
2013-1-3,22,5,-9,6,-4,-13,85,70,42,30.07,29.91,6,0,6,0.00
2013-1-4,36,24,5,25,18,1,90,78,59,29.91,29.72,7,1,13,0.00
2013-1-5,35,27,12,26,17,9,86,66,44,30.22,29.72,13,2,19,0.00
2013-1-6,34,24,10,28,20,8,90,83,69,30.19,29.88,4,0,8,0.00
2013-1-7,33,24,7,27,19,4,94,81,52,30.35,29.91,3,0,8,0.00
2013-1-8,41,25,5,25,18,2,92,75,49,30.33,30.17,9,1,15,0.01
2013-1-9,38,28,14,30,23,12,93,80,65,30.39,29.89,7,0,11,0.00
2013-1-10,42,36,23,32,26,20,93,69,49,30.50,29.91,11,2,22,0.08
2013-1-11,36,28,17,31,22,14,94,79,53,30.50,30.22,5,0,5,0.06
2013-1-12,42,36,32,39,35,31,97,95,91,30.22,30.09,4,0,8,0.08
2013-1-13,42,38,35,41,37,34,97,96,93,30.14,29.94,3,0,4,0.01
2013-1-14,56,43,31,48,37,25,98,82,49,30.20,29.83,8,1,14,0.01
2013-1-15,40,31,24,28,24,21,95,78,52,30.29,30.21,7,0,9,0.00
2013-1-16,30,28,26,27,25,21,94,89,75,30.24,29.76,2,0,4,0.00
2013-1-17,38,28,18,30,20,2,95,73,45,30.08,29.75,9,1,15,0.15
2013-1-18,19,12,2,2,-2,-8,82,55,32,30.36,30.04,10,1,18,0.00
2013-1-19,38,25,4,26,16,-1,85,72,53,30.31,29.83,5,0,5,0.01
2013-1-20,47,33,22,32,21,5,93,64,38,29.84,29.44,16,3,23,0.15
2013-1-21,26,19,11,14,5,-1,90,55,36,30.01,29.79,10,1,15,0.00
2013-1-22,24,13,2,14,5,-7,89,71,34,30.00,29.74,12,1,15,0.00
2013-1-23,6,0,-8,-6,-13,-17,82,55,36,30.07,29.98,9,1,14,0.00
2013-1-24,15,2,-10,-7,-12,-16,75,53,31,30.10,29.93,12,2,18,0.00
2013-1-25,20,10,-3,5,-3,-9,79,58,38,30.18,30.02,4,1,8,0.00
2013-1-26,22,13,2,5,-1,-8,85,56,28,30.12,29.96,15,2,17,0.00
2013-1-27,28,14,3,4,0,-4,80,53,33,30.39,30.11,8,1,13,0.00
2013-1-28,26,16,3,18,8,-1,90,75,33,30.39,30.03,4,0,4,0.00
2013-1-29,35,26,10,30,22,7,94,86,72,30.17,30.03,4,0,6,0.07
2013-1-30,51,37,31,51,36,30,97,96,94,30.12,29.41,2,0,4,0.38
2013-1-31,57,43,26,56,36,12,97,77,48,29.46,28.84,21,4,24,0.57
2013-2-1,28,22,14,17,8,2,69,53,39,30.00,29.46,13,3,15,0.00
2013-2-2,24,18,8,14,6,1,82,62,44,30.16,30.00,6,1,11,0.00
2013-2-3,26,22,15,15,13,11,89,70,53,30.00,29.67,7,1,11,0.00
2013-2-4,28,21,14,16,7,-4,87,57,29,29.83,29.64,9,2,18,0.00
2013-2-5,28,16,6,10,2,-3,82,56,30,29.98,29.83,9,1,12,0.00
2013-2-6,36,24,15,22,13,-5,88,66,35,30.25,29.91,8,1,15,0.00
2013-2-7,24,14,4,4,-1,-5,83,53,29,30.52,30.24,8,1,11,0.00
2013-2-8,15,12,9,11,7,-5,89,78,40,30.50,29.84,9,2,19,0.00
2013-2-9,19,15,12,16,12,6,91,87,78,30.13,29.68,15,4,21,0.00
2013-2-10,39,18,-5,15,5,-9,88,64,25,30.33,30.13,7,1,8,0.00
2013-2-11,30,20,6,29,17,3,96,88,74,30.31,29.57,3,0,4,0.00
2013-2-12,43,37,30,34,29,26,96,75,58,29.77,29.51,12,2,16,0.26
2013-2-13,43,32,24,26,23,20,86,69,46,29.81,29.72,5,1,10,0.00
2013-2-14,42,30,22,24,21,18,88,70,43,29.97,29.69,6,0,9,0.00
2013-2-15,48,32,18,30,23,15,91,74,46,29.97,29.86,8,0,14,0.00
2013-2-16,38,32,26,31,25,9,94,75,46,29.93,29.74,4,1,11,0.05
2013-2-17,26,21,14,16,8,1,84,58,43,29.74,29.25,20,3,24,0.00
2013-2-18,31,20,12,7,0,-6,63,44,23,30.04,29.48,17,3,27,0.00
2013-2-19,40,30,14,32,11,-5,95,50,21,30.08,29.53,8,1,8,0.29
2013-2-20,36,30,23,33,24,16,96,77,64,29.65,29.44,14,2,15,0.02
2013-2-21,29,25,18,19,13,7,77,62,46,30.16,29.64,12,3,14,0.00
2013-2-22,40,30,21,22,19,16,85,67,44,30.38,30.16,8,1,12,0.00
2013-2-23,35,30,24,31,27,21,95,87,75,30.32,29.97,3,0,5,0.00
2013-2-24,32,30,28,31,29,26,95,93,91,29.96,29.75,1,0,2,0.01
2013-2-25,42,32,26,34,29,25,96,88,68,30.22,29.88,3,0,3,0.23
2013-2-26,41,34,28,32,29,27,96,86,63,30.34,30.21,3,0,6,0.09
2013-2-27,34,32,29,32,30,28,96,93,85,30.20,29.66,12,4,17,0.09
2013-2-28,40,34,30,37,32,29,96,93,87,29.65,29.53,5,1,8,0.46
2013-3-1,37,33,30,30,29,28,94,85,74,29.66,29.53,5,1,10,0.01
2013-3-2,44,34,29,30,29,27,95,81,55,29.65,29.59,6,1,9,0.01
2013-3-3,42,34,30,35,30,26,94,86,73,29.62,29.53,7,1,8,0.19
2013-3-4,39,32,26,26,24,21,82,72,54,29.71,29.50,8,2,14,0.00
2013-3-5,45,36,29,33,28,23,90,74,56,30.08,29.71,10,2,12,0.00
2013-3-6,37,33,30,32,29,26,94,84,68,30.21,30.08,16,5,17,0.03
2013-3-7,34,31,29,27,25,23,89,77,68,30.18,30.07,14,4,19,0.00
2013-3-8,47,37,28,26,21,18,89,57,33,30.19,30.01,11,4,21,0.07
2013-3-9,54,38,25,26,18,10,92,50,19,30.36,30.17,8,1,12,0.00
2013-3-10,47,33,20,30,26,18,93,75,45,30.40,30.28,6,1,10,0.00
2013-3-11,55,40,29,36,30,26,94,72,34,30.30,30.12,7,1,8,0.00
2013-3-12,47,42,34,46,41,32,97,96,90,30.14,29.70,6,1,10,0.55
2013-3-13,49,41,28,46,35,26,97,82,49,29.74,29.66,8,1,11,0.00
2013-3-14,40,29,18,26,19,4,94,66,42,29.74,29.61,16,2,20,0.00
2013-3-15,38,25,12,27,12,3,92,59,31,29.77,29.57,9,2,14,0.00
2013-3-16,35,27,19,26,16,11,93,64,41,29.86,29.61,10,1,12,0.00
2013-3-17,32,22,13,15,7,0,89,56,29,30.27,29.86,18,2,22,0.00
2013-3-18,37,22,3,20,5,-2,86,53,20,30.41,30.24,7,1,10,0.00
2013-3-19,30,27,22,28,25,20,95,91,71,30.24,29.67,12,3,15,0.00
2013-3-20,36,27,13,29,20,11,95,78,52,29.71,29.61,12,2,14,0.15
2013-3-21,42,30,18,22,17,11,87,60,30,29.74,29.58,8,1,11,0.06
2013-3-22,41,30,18,21,18,14,89,63,38,29.65,29.58,9,1,11,0.00
2013-3-23,40,31,21,25,21,15,81,66,44,29.69,29.53,12,2,28,0.00
2013-3-24,48,36,25,24,23,21,89,61,36,29.78,29.67,10,2,17,0.00
2013-3-25,41,33,23,31,26,20,91,77,59,29.77,29.57,10,2,13,0.00
2013-3-26,50,38,28,26,23,17,83,56,29,29.74,29.57,10,2,14,0.00
2013-3-27,51,37,22,34,27,19,93,70,38,29.87,29.71,10,1,15,0.04
2013-3-28,48,39,33,36,32,27,96,77,45,29.98,29.86,7,1,8,0.02
2013-3-29,54,41,31,36,30,28,91,68,41,30.01,29.95,13,1,13,0.00
2013-3-30,55,40,27,32,24,15,93,59,23,30.08,29.97,8,1,11,0.00
2013-3-31,56,40,21,37,24,18,89,59,25,30.10,29.80,7,1,12,0.00
2013-4-1,56,41,31,43,34,16,95,79,48,29.80,29.47,10,2,18,0.45
2013-4-2,38,31,24,16,12,9,65,47,33,29.81,29.69,16,3,23,0.00
2013-4-3,44,34,26,20,12,6,74,43,22,30.05,29.79,13,3,19,0.00
2013-4-4,53,39,23,22,15,10,75,41,21,30.21,29.95,11,2,14,0.00
2013-4-5,57,43,32,28,24,17,78,50,27,29.94,29.64,10,2,17,0.00
2013-4-6,42,32,24,17,8,1,67,38,19,30.31,29.83,14,2,21,0.00
2013-4-7,55,39,22,34,23,14,79,55,28,30.31,29.93,10,1,16,0.00
2013-4-8,63,49,34,39,35,31,92,62,33,30.12,29.90,8,1,10,0.00
2013-4-9,54,43,38,46,40,33,95,89,71,30.10,29.89,7,1,7,0.31
2013-4-10,58,47,39,47,43,38,96,87,62,29.98,29.87,7,0,7,0.55
2013-4-11,54,45,39,43,31,15,96,63,30,30.17,29.86,5,1,9,0.05
2013-4-12,39,33,30,31,25,16,95,75,43,30.24,29.87,8,2,13,0.00
2013-4-13,48,38,31,39,34,30,95,87,70,29.90,29.80,3,0,5,0.39
2013-4-14,53,41,31,37,33,28,96,75,46,30.18,29.88,8,1,16,0.01
2013-4-15,59,42,26,36,31,24,95,70,32,30.39,30.18,8,1,13,0.00
2013-4-16,64,47,29,51,40,28,96,80,45,30.39,29.97,11,2,16,0.08
2013-4-17,61,52,34,52,34,27,89,55,29,30.33,29.97,11,2,19,0.00
2013-4-18,56,43,27,39,30,23,90,64,34,30.47,30.13,8,2,13,0.00
2013-4-19,75,61,46,61,52,36,88,74,54,30.13,29.59,10,2,20,0.01
2013-4-20,64,50,38,61,36,20,94,63,39,30.17,29.58,17,3,20,0.35
2013-4-21,52,40,28,26,21,17,83,49,28,30.68,30.17,9,1,15,0.00
2013-4-22,51,38,26,31,23,17,92,60,27,30.78,30.64,11,2,13,0.00
2013-4-23,40,35,27,38,33,25,95,90,83,30.63,30.19,6,1,9,0.01
2013-4-24,74,53,40,54,46,38,96,81,46,30.18,29.75,6,1,10,0.01
2013-4-25,63,53,35,50,35,26,90,54,26,30.29,29.74,13,2,16,0.01
2013-4-26,61,45,28,36,31,26,89,61,32,30.42,30.29,9,1,13,0.00
2013-4-27,67,49,32,40,34,30,94,60,25,30.41,30.27,6,1,10,0.00
2013-4-28,69,51,31,42,35,29,94,59,30,30.33,30.22,11,1,12,0.00
2013-4-29,72,52,34,46,37,32,93,61,29,30.26,30.16,6,1,11,0.00
2013-4-30,72,54,34,42,36,31,93,56,27,30.38,30.24,9,1,11,0.00
2013-5-1,76,55,31,39,33,28,87,51,20,30.45,30.38,9,1,11,0.00
2013-5-2,76,51,36,46,37,30,91,63,28,30.52,30.39,13,1,13,0.00
2013-5-3,68,50,31,46,39,29,94,70,45,30.55,30.37,10,1,12,0.00
2013-5-4,68,49,34,44,37,30,95,68,25,30.39,30.27,8,2,12,0.00
2013-5-5,71,50,29,43,36,27,95,64,29,30.34,30.22,8,1,9,0.00
2013-5-6,75,52,31,47,39,29,94,67,23,30.26,30.13,6,1,9,0.00
2013-5-7,81,60,35,55,46,34,96,66,28,30.17,30.07,6,1,9,0.00
2013-5-8,76,61,45,61,54,44,96,79,48,30.22,30.09,12,1,15,0.09
2013-5-9,67,58,53,61,56,52,97,94,79,30.09,29.89,5,1,5,0.35
2013-5-10,77,63,53,61,56,52,97,80,46,29.95,29.89,5,0,8,0.00
2013-5-11,68,59,52,62,57,51,97,93,81,29.91,29.68,5,0,11,0.34
2013-5-12,69,58,42,58,49,32,98,77,42,29.75,29.55,8,1,13,0.22
2013-5-13,56,47,38,34,31,28,82,54,36,30.02,29.75,10,2,18,0.00
2013-5-14,60,47,31,37,30,25,93,58,29,30.03,29.93,8,1,18,0.00
2013-5-15,67,49,28,49,36,26,96,69,27,30.03,29.66,11,1,15,0.10
2013-5-16,78,62,45,53,44,36,97,59,24,29.81,29.58,11,2,17,0.00
2013-5-17,67,55,43,45,41,36,90,60,33,30.21,29.81,7,1,13,0.00
2013-5-18,72,54,36,49,43,35,95,70,32,30.32,30.21,9,1,11,0.00
2013-5-19,60,51,47,52,48,45,96,88,71,30.37,30.23,3,0,5,0.04
2013-5-20,78,60,49,65,55,48,97,86,60,30.23,29.93,6,0,8,0.12
2013-5-21,55,52,48,54,50,47,97,95,92,30.07,29.95,4,1,7,0.38
2013-5-22,58,52,48,54,50,48,97,95,87,30.03,29.91,3,0,5,0.47
2013-5-23,72,59,48,66,57,47,97,93,79,29.95,29.78,5,0,7,0.11
2013-5-24,72,62,48,66,59,47,97,91,76,29.85,29.64,5,1,11,0.46
2013-5-25,49,46,41,47,45,40,96,94,89,29.85,29.67,8,2,13,0.91
2013-5-26,58,48,38,42,40,36,96,75,50,30.01,29.64,9,2,14,0.20
2013-5-27,68,52,32,44,37,31,96,64,28,30.18,30.01,9,1,16,0.00
2013-5-28,75,56,34,50,40,33,96,63,25,30.25,30.17,6,0,8,0.00
2013-5-29,59,53,44,56,51,42,96,93,89,30.19,30.00,2,0,4,0.23
2013-5-30,86,71,56,67,61,55,98,75,41,30.05,29.98,7,1,14,0.01
2013-5-31,93,76,56,68,63,55,96,69,40,30.07,29.91,7,1,11,0.00
2013-6-1,95,79,60,71,65,58,95,67,35,29.95,29.82,7,1,13,0.00
2013-6-2,92,76,64,72,67,62,97,76,44,29.84,29.65,12,1,17,0.29
2013-6-3,80,68,53,66,60,49,97,79,43,29.82,29.71,7,1,10,0.01
2013-6-4,67,57,46,51,45,41,95,67,41,30.08,29.80,10,1,17,0.00
2013-6-5,74,59,41,50,43,39,95,62,29,30.17,30.07,6,1,9,0.00
2013-6-6,73,60,50,54,48,42,89,67,36,30.21,30.13,5,1,7,0.00
2013-6-7,56,53,49,52,50,44,96,90,67,30.14,29.93,5,0,6,0.69
2013-6-8,75,60,51,64,56,50,96,85,65,29.98,29.69,6,1,10,0.66
2013-6-9,77,64,49,59,54,47,97,74,45,30.16,29.98,7,1,11,0.00
2013-6-10,71,60,46,60,54,45,96,82,63,30.22,30.05,3,0,6,0.10
2013-6-11,58,55,53,57,54,52,97,96,93,30.05,29.58,5,1,7,1.08
2013-6-12,64,58,53,58,54,52,98,87,73,29.80,29.55,8,1,11,0.06
2013-6-13,73,59,46,57,52,45,97,80,50,29.81,29.72,4,0,6,0.00
2013-6-14,79,63,52,58,53,48,97,75,35,29.76,29.67,6,0,8,0.00
2013-6-15,78,63,48,51,47,42,95,62,29,29.92,29.77,6,1,10,0.00
2013-6-16,76,62,44,61,53,43,96,76,42,29.92,29.71,7,0,8,0.00
2013-6-17,84,67,53,63,58,52,97,75,40,29.88,29.75,8,1,12,0.00
2013-6-18,68,59,53,59,56,52,97,90,67,29.99,29.87,3,0,3,0.07
2013-6-19,78,62,46,60,50,42,97,71,31,30.16,29.93,4,1,7,0.00
2013-6-20,78,62,42,54,48,41,96,65,34,30.26,30.16,5,1,12,0.00
2013-6-21,84,65,48,61,54,46,95,71,36,30.24,30.18,4,0,11,0.00
2013-6-22,86,69,54,69,61,52,96,78,46,30.22,30.11,3,0,6,0.07
2013-6-23,87,71,61,76,67,60,97,89,62,30.15,29.97,6,0,15,0.47
2013-6-24,92,76,64,73,68,63,98,77,46,30.00,29.86,8,1,10,0.01
2013-6-25,91,78,68,73,68,63,96,74,49,29.91,29.72,7,1,11,0.04
2013-6-26,79,68,58,71,65,57,97,91,72,29.89,29.72,5,0,7,0.38
2013-6-27,70,61,56,66,60,55,97,94,87,29.88,29.80,4,0,5,0.09
2013-6-28,63,60,56,62,59,55,98,97,96,29.82,29.54,4,0,8,1.83
2013-6-29,84,70,62,73,66,61,98,88,62,29.69,29.54,7,1,14,0.05
2013-6-30,86,73,61,73,67,60,98,83,57,29.94,29.70,4,0,12,0.17
2013-7-1,78,71,65,72,68,64,98,92,78,30.09,29.93,2,0,5,0.19
2013-7-2,69,63,58,68,62,57,98,96,94,30.23,30.08,3,0,5,0.16
2013-7-3,88,73,59,76,67,58,98,85,63,30.21,30.09,6,1,11,0.12
2013-7-4,94,81,68,76,72,67,97,77,51,30.18,30.06,7,1,8,0.00
2013-7-5,94,82,70,76,72,69,94,74,51,30.14,30.00,6,1,9,0.00
2013-7-6,88,79,65,74,70,63,94,76,56,30.05,29.96,5,1,10,0.00
2013-7-7,88,73,61,74,67,60,97,82,52,30.01,29.92,3,0,7,0.00
2013-7-8,77,69,63,72,67,62,97,93,81,30.09,29.92,4,0,5,0.32
2013-7-9,75,67,62,68,64,62,97,93,76,30.13,30.07,3,0,4,0.55
2013-7-10,70,65,61,67,64,60,98,96,92,30.09,29.79,5,0,5,0.56
2013-7-11,86,72,65,74,69,60,98,90,59,29.98,29.76,1,0,3,0.02
2013-7-12,82,69,57,65,60,56,96,76,48,30.23,29.98,3,0,6,0.00
2013-7-13,84,71,55,67,62,54,97,76,48,30.32,30.23,3,0,7,0.00
2013-7-14,89,76,61,73,68,60,97,79,54,30.30,30.20,3,0,5,0.00
2013-7-15,94,79,63,74,68,62,97,74,43,30.21,30.09,5,0,6,0.00
2013-7-16,92,78,64,75,69,63,95,76,46,30.18,30.12,4,0,7,0.00
2013-7-17,93,79,64,75,70,63,97,76,48,30.18,29.97,7,1,16,0.78
2013-7-18,92,77,67,76,70,66,97,81,45,30.03,29.95,5,0,10,0.24
2013-7-19,90,74,67,76,70,66,98,88,61,29.96,29.77,12,1,12,0.00
2013-7-20,88,76,65,71,68,64,96,78,53,29.79,29.64,3,1,14,0.00
2013-7-21,79,69,57,65,62,56,97,80,57,30.02,29.79,2,0,13,0.00
2013-7-22,75,65,60,68,63,58,97,93,75,30.05,29.93,2,0,4,0.07
2013-7-23,69,64,60,67,62,59,97,96,92,29.93,29.57,2,0,4,2.13
2013-7-24,84,69,53,72,61,51,98,79,49,29.99,29.58,12,1,12,0.00
2013-7-25,74,62,49,61,54,47,96,78,54,30.12,29.99,3,0,6,0.00
2013-7-26,72,65,60,65,61,58,96,88,73,30.11,29.93,7,1,7,0.08
2013-7-27,85,71,55,68,61,52,97,76,33,30.03,29.95,6,0,8,0.00
2013-7-28,75,66,57,67,64,56,97,91,73,30.04,30.01,3,0,8,0.01
2013-7-29,83,68,60,70,64,59,97,89,61,30.06,29.97,6,0,17,1.39
2013-7-30,80,68,55,64,59,53,98,76,41,30.09,30.02,8,1,13,0.01
2013-7-31,82,67,52,63,57,50,97,74,37,30.14,30.05,4,0,7,0.00
2013-8-1,81,67,53,67,60,53,97,82,56,30.05,29.88,6,0,10,0.03
2013-8-2,82,69,58,68,62,56,97,82,42,29.88,29.75,8,0,11,0.51
2013-8-3,78,65,55,62,58,54,97,79,48,29.84,29.75,8,1,11,0.00
2013-8-4,77,63,50,66,56,49,97,81,50,29.86,29.77,5,0,15,0.03
2013-8-5,75,60,46,54,49,44,96,70,36,30.05,29.86,8,1,17,0.01
2013-8-6,79,62,43,58,51,41,96,72,39,30.16,30.05,5,0,8,0.00
2013-8-7,80,64,46,63,54,45,97,75,46,30.19,30.12,8,0,8,0.00
2013-8-8,83,68,56,71,64,54,96,86,64,30.12,30.00,4,0,9,0.06
2013-8-9,72,69,65,71,68,64,97,96,91,30.02,29.75,3,0,11,1.30
2013-8-10,80,69,52,67,58,49,98,73,35,30.01,29.76,7,1,11,0.01
2013-8-11,79,62,45,60,53,44,97,75,43,30.06,29.99,5,0,8,0.00
2013-8-12,82,66,51,63,56,50,97,74,41,30.02,29.91,8,0,9,0.00
2013-8-13,74,64,54,67,61,53,97,92,73,29.92,29.69,2,0,5,0.87
2013-8-14,75,64,51,62,56,49,98,77,46,29.92,29.64,10,1,12,0.00
2013-8-15,76,61,44,56,51,43,97,75,44,30.09,29.92,7,1,11,0.00
2013-8-16,80,63,48,61,54,47,97,76,44,30.19,30.08,3,0,6,0.00
2013-8-17,81,65,50,62,55,49,97,75,40,30.28,30.19,7,0,7,0.00
2013-8-18,79,65,50,66,58,49,97,81,54,30.28,30.06,5,0,6,0.00
2013-8-19,83,68,52,66,60,50,97,78,47,30.06,29.92,4,0,11,0.00
2013-8-20,86,70,55,67,61,54,97,77,45,30.09,29.97,7,0,7,0.00
2013-8-21,88,72,56,70,63,55,97,76,45,30.14,30.00,6,0,7,0.00
2013-8-22,87,73,59,70,64,58,96,76,45,30.01,29.79,6,1,13,0.00
2013-8-23,78,68,55,65,56,48,93,66,39,30.16,29.79,6,1,10,0.00
2013-8-24,79,62,46,58,50,45,95,69,33,30.32,30.16,4,0,6,0.00
2013-8-25,80,63,44,61,53,43,97,74,40,30.37,30.15,4,0,11,0.00
2013-8-26,78,67,57,68,63,56,97,87,67,30.15,29.87,6,1,12,0.24
2013-8-27,86,71,59,69,64,58,97,81,50,29.91,29.85,4,0,5,0.00
2013-8-28,85,71,58,72,65,57,97,83,58,30.02,29.87,4,0,8,0.55
2013-8-29,65,63,61,63,61,60,97,95,88,30.11,29.99,3,0,5,0.04
2013-8-30,84,69,59,70,64,58,97,86,60,30.03,29.79,4,0,6,0.01
2013-8-31,82,73,66,72,68,64,97,86,64,29.83,29.77,3,0,6,0.40
2013-9-1,86,74,67,74,69,66,97,86,56,29.91,29.77,3,0,4,0.01
2013-9-2,70,67,64,68,66,63,98,97,95,29.89,29.74,2,0,3,1.01
2013-9-3,79,69,59,70,65,58,98,88,64,29.77,29.70,4,0,7,0.00
2013-9-4,79,66,53,63,57,52,98,77,45,29.89,29.77,10,1,11,0.01
2013-9-5,69,59,44,59,52,41,96,80,37,30.15,29.86,8,0,8,0.23
2013-9-6,68,53,36,50,43,36,97,74,36,30.23,30.04,7,0,7,0.00
2013-9-7,77,62,46,58,51,44,96,70,46,30.05,29.81,7,1,10,0.00
2013-9-8,69,58,41,60,48,39,95,71,45,30.07,29.73,10,1,16,0.01
2013-9-9,69,53,36,52,44,35,97,75,40,30.20,30.08,6,0,8,0.00
2013-9-10,70,60,47,66,57,45,97,92,81,30.12,30.02,5,0,5,0.15
2013-9-11,92,77,63,77,71,62,97,82,55,30.05,29.91,6,1,12,0.28
2013-9-12,77,69,64,74,67,63,97,94,77,29.96,29.67,3,0,7,1.33
2013-9-13,71,64,54,67,62,54,98,94,79,29.75,29.60,4,0,7,0.58
2013-9-14,70,58,46,58,54,45,98,87,61,30.03,29.74,5,0,8,0.11
2013-9-15,70,55,38,55,48,38,98,81,47,30.13,29.99,6,0,11,0.00
2013-9-16,68,55,41,56,48,34,96,79,56,30.27,29.98,5,1,12,0.02
2013-9-17,66,49,34,49,40,32,96,75,42,30.42,30.27,9,0,9,0.00
2013-9-18,73,53,36,53,44,35,97,77,38,30.31,30.11,3,0,11,0.00
2013-9-19,77,57,40,59,50,39,97,80,40,30.14,30.02,6,0,8,0.01
2013-9-20,79,59,43,60,51,42,97,78,42,30.11,30.01,4,0,6,0.00
2013-9-21,73,58,43,62,54,42,97,87,61,30.03,29.74,10,1,12,0.01
2013-9-22,70,62,46,64,56,43,96,82,52,29.79,29.59,7,1,11,0.46
2013-9-23,60,48,36,43,40,34,95,75,51,29.97,29.80,7,1,15,0.00
2013-9-24,62,47,34,46,40,33,97,80,47,29.95,29.82,6,1,13,0.00
2013-9-25,60,49,38,50,44,37,97,83,61,30.00,29.87,5,0,6,0.00
2013-9-26,67,54,41,52,47,40,97,80,55,30.16,30.00,5,0,6,0.00
2013-9-27,70,57,47,56,51,46,96,82,54,30.27,30.15,4,0,7,0.00
2013-9-28,72,56,44,57,49,43,97,81,45,30.35,30.27,3,0,6,0.00
2013-9-29,70,53,39,56,46,38,97,81,48,30.28,30.12,3,0,5,0.01
2013-9-30,69,52,36,55,46,35,97,83,54,30.14,29.97,5,0,6,0.00
2013-10-1,77,58,43,59,51,42,97,79,44,29.98,29.84,5,0,9,0.01
2013-10-2,78,61,48,62,54,47,97,81,51,29.92,29.79,8,1,12,0.00
2013-10-3,75,58,44,57,50,42,97,77,40,30.07,29.92,4,0,8,0.01
2013-10-4,72,56,42,56,49,41,97,81,47,30.10,30.03,2,0,4,0.00
2013-10-5,65,57,52,54,50,44,95,77,54,30.15,30.07,2,0,3,0.00
2013-10-6,54,50,48,52,44,38,96,81,63,30.28,30.14,4,0,7,0.14
2013-10-7,68,56,50,67,55,48,98,96,89,30.19,29.75,7,1,21,0.75
2013-10-8,62,52,36,54,43,34,96,74,43,30.39,29.86,8,1,13,0.00
2013-10-9,64,46,31,48,38,30,97,79,43,30.49,30.37,5,0,5,0.00
2013-10-10,68,49,33,50,42,32,97,81,44,30.37,30.18,2,0,6,0.01
2013-10-11,69,54,42,52,46,41,97,80,46,30.19,30.14,2,0,4,0.01
2013-10-12,55,49,42,52,47,41,97,93,84,30.43,30.19,5,0,6,0.00
2013-10-13,57,50,40,49,46,40,97,88,69,30.47,30.39,2,0,4,0.00
2013-10-14,68,52,35,52,45,34,97,80,53,30.39,30.22,4,0,7,0.00
2013-10-15,64,56,47,54,51,46,96,85,67,30.29,30.20,4,0,7,0.00
2013-10-16,62,53,46,52,49,45,96,88,60,30.20,29.90,3,0,6,0.00
2013-10-17,70,55,46,56,49,45,97,83,47,29.90,29.71,10,1,10,0.00
2013-10-18,66,56,46,55,49,39,97,79,54,29.86,29.60,8,1,15,0.31
2013-10-19,65,51,36,48,42,35,95,74,44,29.94,29.75,6,1,11,0.00
2013-10-20,60,51,43,47,40,33,97,70,37,29.97,29.67,7,1,16,0.02
2013-10-21,62,48,34,46,40,32,94,76,48,30.08,29.96,5,1,10,0.00
2013-10-22,56,45,36,52,43,35,97,93,82,29.96,29.70,3,0,11,0.09
2013-10-23,54,42,32,43,35,31,97,79,45,29.77,29.57,6,0,6,0.00
2013-10-24,49,42,33,36,32,29,92,70,48,29.83,29.61,8,2,15,0.00
2013-10-25,46,36,27,35,29,24,94,77,51,30.10,29.83,7,1,14,0.01
2013-10-26,48,38,25,36,30,23,95,74,48,30.11,29.84,7,1,14,0.00
2013-10-27,53,43,30,39,33,26,91,70,44,30.01,29.77,6,1,15,0.00
2013-10-28,53,38,26,37,29,23,94,72,47,30.34,30.01,10,1,17,0.00
2013-10-29,46,30,18,29,21,16,93,73,34,30.44,30.33,4,0,8,0.00
2013-10-30,50,34,23,32,27,20,93,76,49,30.34,30.17,6,1,12,0.00
2013-10-31,57,39,26,56,38,25,97,94,88,30.23,29.75,3,0,6,0.33
2013-11-1,66,60,52,61,55,44,97,86,61,29.74,29.37,12,2,23,0.45
2013-11-2,62,51,39,47,43,37,96,77,50,29.74,29.59,5,0,10,0.05
2013-11-3,47,38,28,46,25,16,95,61,37,30.41,29.74,7,2,11,0.00
2013-11-4,41,30,21,22,18,15,89,63,37,30.70,30.41,9,1,11,0.00
2013-11-5,48,32,18,30,25,17,93,76,47,30.70,30.49,5,0,9,0.00
2013-11-6,58,43,29,44,37,28,94,81,59,30.48,29.98,7,1,12,0.00
2013-11-7,56,49,34,54,45,30,95,86,75,29.99,29.63,9,1,9,0.13
2013-11-8,43,36,25,29,26,22,93,66,50,30.00,29.78,7,1,12,0.00
2013-11-9,42,36,26,28,23,20,81,61,45,30.13,30.00,7,1,11,0.00
2013-11-10,42,37,32,38,34,26,94,89,75,30.02,29.70,5,0,8,0.07
2013-11-11,44,38,32,34,30,28,88,72,54,30.01,29.76,8,1,13,0.00
2013-11-12,42,32,23,35,20,15,75,63,50,30.10,29.81,13,2,17,0.00
2013-11-13,33,26,15,17,14,10,88,60,41,30.22,30.05,7,1,15,0.00
2013-11-14,47,35,26,30,24,17,90,66,50,30.06,29.97,11,1,11,0.00
2013-11-15,53,36,24,30,24,21,93,67,29,30.17,30.06,6,1,14,0.00
2013-11-16,57,38,28,31,27,24,88,68,28,30.33,30.16,2,0,4,0.00
2013-11-17,41,36,26,40,34,24,97,94,88,30.33,29.88,3,0,3,0.18
2013-11-18,60,50,41,57,44,33,98,80,52,29.88,29.48,12,1,15,0.56
2013-11-19,44,35,29,33,21,16,66,56,46,30.22,29.57,13,3,20,0.00
2013-11-20,41,29,20,19,14,9,86,57,27,30.61,30.21,11,1,16,0.00
2013-11-21,45,28,15,24,17,13,92,67,29,30.62,30.32,4,0,6,0.00
2013-11-22,39,35,27,37,30,19,95,84,66,30.32,29.75,1,0,3,0.02
2013-11-23,40,34,25,38,24,14,95,68,41,29.85,29.68,11,2,16,0.00
2013-11-24,25,20,15,17,5,1,72,52,43,30.06,29.70,21,4,23,0.00
2013-11-25,28,21,14,14,3,-2,60,45,28,30.27,30.06,8,1,12,0.00
2013-11-26,33,29,25,30,24,13,94,82,58,30.29,30.10,5,0,7,0.00
2013-11-27,51,39,32,50,38,30,97,96,94,30.10,29.17,7,1,12,1.55
2013-11-28,32,26,16,32,15,6,97,66,42,30.37,29.31,17,3,21,0.00
2013-11-29,28,17,8,12,7,2,90,68,32,30.72,30.37,6,1,11,0.00
2013-11-30,30,17,4,20,11,1,90,76,45,30.78,30.40,6,0,8,0.00
2013-12-1,34,31,26,32,28,20,96,89,76,30.40,30.04,4,0,4,0.01
2013-12-2,37,34,32,35,33,31,96,95,94,30.03,29.91,5,1,7,0.01
2013-12-3,41,34,26,38,33,25,97,95,86,29.92,29.84,4,0,4,0.00
2013-12-4,39,30,21,32,26,20,96,87,69,30.18,29.89,8,0,8,0.01
2013-12-5,34,31,23,33,30,22,96,95,92,30.23,29.88,2,0,2,0.07
2013-12-6,45,38,34,44,36,27,97,90,71,30.10,29.83,3,0,4,0.07
2013-12-7,36,30,17,31,22,12,94,73,46,30.40,30.06,9,1,14,0.00
2013-12-8,29,21,12,18,13,9,92,74,45,30.54,30.39,5,0,8,0.00
2013-12-9,25,23,21,23,19,11,94,83,59,30.49,29.81,4,1,7,0.00
2013-12-10,35,29,16,29,24,10,95,82,66,29.88,29.71,7,1,10,0.00
2013-12-11,30,21,10,17,13,7,88,71,50,30.10,29.88,11,1,14,0.00
2013-12-12,20,12,3,16,2,-3,89,68,39,30.21,29.95,9,1,12,0.00
2013-12-13,23,12,-1,13,3,-5,89,68,45,30.35,29.88,10,1,17,0.00
2013-12-14,13,6,-4,5,-4,-8,86,67,42,30.58,30.31,6,1,6,0.00
2013-12-15,22,14,8,20,12,5,94,90,86,30.29,29.42,10,2,14,0.00
2013-12-16,24,17,4,18,8,-4,93,70,42,30.15,29.63,11,1,17,0.00
2013-12-17,13,4,-13,9,-2,-17,87,77,58,30.25,30.00,4,0,5,0.00
2013-12-18,33,22,13,22,16,9,91,79,57,30.00,29.82,5,1,9,0.00
2013-12-19,35,26,18,25,21,16,93,82,62,30.06,29.90,5,0,8,0.00
2013-12-20,41,32,26,33,29,23,95,87,66,30.09,29.88,1,0,3,0.17
2013-12-21,43,37,32,41,35,31,96,94,86,29.92,29.81,1,0,2,0.26
2013-12-22,38,30,27,37,29,26,96,95,95,30.06,29.83,5,1,9,0.48
2013-12-23,32,30,27,32,29,25,97,96,95,30.09,29.95,2,0,3,0.00
2013-12-24,32,25,14,31,23,11,97,93,83,30.15,30.01,3,0,4,0.00
2013-12-25,20,10,3,14,7,0,90,85,73,30.51,30.16,4,0,6,0.00
2013-12-26,24,15,6,21,13,3,94,90,86,30.47,30.05,2,0,3,0.00
2013-12-27,33,21,12,27,18,10,94,88,71,30.18,30.11,6,0,10,0.00
2013-12-28,36,27,11,31,24,8,95,90,82,30.14,29.93,5,0,10,0.00
2013-12-29,38,30,23,35,28,21,96,94,86,29.99,29.53,2,0,2,0.00
2013-12-30,36,25,2,33,21,-1,96,86,63,30.13,29.50,0,0,0,0.00
2013-12-31,16,3,-6,5,-2,-10,90,80,58,30.13,29.98,0,0,0,0.00
2014-1-1,21,10,-1,10,4,-4,90,78,55,30.35,30.08,0,0,0,0.00
2014-1-2,9,1,-5,5,-3,-9,87,83,80,30.35,29.94,0,0,0,0.00